sensor_id;sensor_type;location;lat;lon;timestamp;P1;durP1;ratioP1;P2;durP2;ratioP2
27491;SDS011;14927;51.210;6.838;2023-04-24T00:00:22;1.45;;;0.90;;
27491;SDS011;14927;51.210;6.838;2023-04-24T00:03:07;2.58;;;0.73;;
27491;SDS011;14927;51.210;6.838;2023-04-24T00:05:52;1.33;;;0.70;;
27491;SDS011;14927;51.210;6.838;2023-04-24T00:08:36;1.15;;;0.85;;
27491;SDS011;14927;51.210;6.838;2023-04-24T00:11:21;2.60;;;1.20;;
27491;SDS011;14927;51.210;6.838;2023-04-24T00:14:05;2.20;;;1.10;;
27491;SDS011;14927;51.210;6.838;2023-04-24T00:16:50;3.00;;;1.08;;
27491;SDS011;14927;51.210;6.838;2023-04-24T00:19:35;1.45;;;0.90;;
27491;SDS011;14927;51.210;6.838;2023-04-24T00:22:19;1.10;;;0.88;;
27491;SDS011;14927;51.210;6.838;2023-04-24T00:25:04;1.75;;;0.82;;
27491;SDS011;14927;51.210;6.838;2023-04-24T00:27:49;1.90;;;1.00;;
27491;SDS011;14927;51.210;6.838;2023-04-24T00:30:34;1.75;;;0.80;;
27491;SDS011;14927;51.210;6.838;2023-04-24T00:33:19;2.33;;;0.70;;
27491;SDS011;14927;51.210;6.838;2023-04-24T00:36:05;0.95;;;0.70;;
27491;SDS011;14927;51.210;6.838;2023-04-24T00:38:50;1.20;;;0.70;;
27491;SDS011;14927;51.210;6.838;2023-04-24T00:41:35;1.00;;;0.90;;
27491;SDS011;14927;51.210;6.838;2023-04-24T00:44:20;2.08;;;0.82;;
27491;SDS011;14927;51.210;6.838;2023-04-24T00:47:04;0.93;;;0.70;;
27491;SDS011;14927;51.210;6.838;2023-04-24T00:49:49;2.25;;;0.75;;
27491;SDS011;14927;51.210;6.838;2023-04-24T00:52:34;1.15;;;0.60;;
27491;SDS011;14927;51.210;6.838;2023-04-24T00:55:18;3.85;;;1.17;;
27491;SDS011;14927;51.210;6.838;2023-04-24T00:58:04;1.17;;;0.82;;
27491;SDS011;14927;51.210;6.838;2023-04-24T01:00:49;0.98;;;0.55;;
27491;SDS011;14927;51.210;6.838;2023-04-24T01:03:36;3.33;;;0.98;;
27491;SDS011;14927;51.210;6.838;2023-04-24T01:06:22;1.15;;;0.80;;
27491;SDS011;14927;51.210;6.838;2023-04-24T01:09:07;1.58;;;0.73;;
27491;SDS011;14927;51.210;6.838;2023-04-24T01:11:55;2.13;;;0.90;;
27491;SDS011;14927;51.210;6.838;2023-04-24T01:14:40;1.42;;;1.00;;
27491;SDS011;14927;51.210;6.838;2023-04-24T01:17:25;4.88;;;1.40;;
27491;SDS011;14927;51.210;6.838;2023-04-24T01:20:10;3.63;;;1.50;;
27491;SDS011;14927;51.210;6.838;2023-04-24T01:22:55;3.35;;;1.70;;
27491;SDS011;14927;51.210;6.838;2023-04-24T01:25:43;2.83;;;1.98;;
27491;SDS011;14927;51.210;6.838;2023-04-24T01:28:28;3.00;;;1.90;;
27491;SDS011;14927;51.210;6.838;2023-04-24T01:31:13;4.78;;;2.42;;
27491;SDS011;14927;51.210;6.838;2023-04-24T01:33:59;4.70;;;2.72;;
27491;SDS011;14927;51.210;6.838;2023-04-24T01:36:45;4.97;;;3.08;;
27491;SDS011;14927;51.210;6.838;2023-04-24T01:39:30;7.72;;;2.72;;
27491;SDS011;14927;51.210;6.838;2023-04-24T01:42:14;4.85;;;3.15;;
27491;SDS011;14927;51.210;6.838;2023-04-24T01:45:00;4.53;;;3.35;;
27491;SDS011;14927;51.210;6.838;2023-04-24T01:47:47;5.38;;;3.30;;
27491;SDS011;14927;51.210;6.838;2023-04-24T01:50:33;5.07;;;2.83;;
27491;SDS011;14927;51.210;6.838;2023-04-24T01:53:18;9.38;;;3.45;;
27491;SDS011;14927;51.210;6.838;2023-04-24T01:56:03;4.72;;;3.15;;
27491;SDS011;14927;51.210;6.838;2023-04-24T01:58:49;4.13;;;3.22;;
27491;SDS011;14927;51.210;6.838;2023-04-24T02:01:36;6.55;;;3.33;;
27491;SDS011;14927;51.210;6.838;2023-04-24T02:04:21;6.28;;;4.03;;
27491;SDS011;14927;51.210;6.838;2023-04-24T02:07:06;7.20;;;3.80;;
27491;SDS011;14927;51.210;6.838;2023-04-24T02:09:51;7.75;;;3.67;;
27491;SDS011;14927;51.210;6.838;2023-04-24T02:12:36;5.07;;;3.42;;
27491;SDS011;14927;51.210;6.838;2023-04-24T02:15:21;5.40;;;4.18;;
27491;SDS011;14927;51.210;6.838;2023-04-24T02:18:06;6.28;;;4.05;;
27491;SDS011;14927;51.210;6.838;2023-04-24T02:20:51;7.75;;;4.50;;
27491;SDS011;14927;51.210;6.838;2023-04-24T02:23:36;7.18;;;4.47;;
27491;SDS011;14927;51.210;6.838;2023-04-24T02:26:20;9.60;;;4.65;;
27491;SDS011;14927;51.210;6.838;2023-04-24T02:29:05;14.48;;;4.47;;
27491;SDS011;14927;51.210;6.838;2023-04-24T02:31:50;8.43;;;4.80;;
27491;SDS011;14927;51.210;6.838;2023-04-24T02:34:35;6.55;;;4.68;;
27491;SDS011;14927;51.210;6.838;2023-04-24T02:37:19;13.30;;;5.20;;
27491;SDS011;14927;51.210;6.838;2023-04-24T02:40:04;9.63;;;5.88;;
27491;SDS011;14927;51.210;6.838;2023-04-24T02:42:50;7.15;;;5.20;;
27491;SDS011;14927;51.210;6.838;2023-04-24T02:45:34;8.95;;;5.90;;
27491;SDS011;14927;51.210;6.838;2023-04-24T02:48:19;10.00;;;5.15;;
27491;SDS011;14927;51.210;6.838;2023-04-24T02:51:04;9.02;;;6.00;;
27491;SDS011;14927;51.210;6.838;2023-04-24T02:53:51;9.65;;;5.85;;
27491;SDS011;14927;51.210;6.838;2023-04-24T02:56:35;11.77;;;6.32;;
27491;SDS011;14927;51.210;6.838;2023-04-24T02:59:20;10.10;;;5.80;;
27491;SDS011;14927;51.210;6.838;2023-04-24T03:02:05;10.25;;;6.70;;
27491;SDS011;14927;51.210;6.838;2023-04-24T03:04:49;14.32;;;6.97;;
27491;SDS011;14927;51.210;6.838;2023-04-24T03:07:34;12.00;;;6.43;;
27491;SDS011;14927;51.210;6.838;2023-04-24T03:10:20;9.40;;;6.15;;
27491;SDS011;14927;51.210;6.838;2023-04-24T03:13:06;9.40;;;6.82;;
27491;SDS011;14927;51.210;6.838;2023-04-24T03:15:50;9.80;;;6.28;;
27491;SDS011;14927;51.210;6.838;2023-04-24T03:18:35;12.20;;;7.07;;
27491;SDS011;14927;51.210;6.838;2023-04-24T03:21:19;8.68;;;6.13;;
27491;SDS011;14927;51.210;6.838;2023-04-24T03:24:04;10.93;;;6.43;;
27491;SDS011;14927;51.210;6.838;2023-04-24T03:26:49;10.18;;;6.45;;
27491;SDS011;14927;51.210;6.838;2023-04-24T03:29:33;11.27;;;6.50;;
27491;SDS011;14927;51.210;6.838;2023-04-24T03:32:18;10.32;;;6.20;;
27491;SDS011;14927;51.210;6.838;2023-04-24T03:35:03;13.07;;;6.78;;
27491;SDS011;14927;51.210;6.838;2023-04-24T03:37:50;10.05;;;5.95;;
27491;SDS011;14927;51.210;6.838;2023-04-24T03:40:34;10.48;;;5.70;;
27491;SDS011;14927;51.210;6.838;2023-04-24T03:43:19;10.15;;;5.95;;
27491;SDS011;14927;51.210;6.838;2023-04-24T03:46:04;9.30;;;6.07;;
27491;SDS011;14927;51.210;6.838;2023-04-24T03:48:49;11.85;;;6.07;;
27491;SDS011;14927;51.210;6.838;2023-04-24T03:51:33;9.27;;;5.88;;
27491;SDS011;14927;51.210;6.838;2023-04-24T03:54:19;14.63;;;6.45;;
27491;SDS011;14927;51.210;6.838;2023-04-24T03:57:04;11.75;;;6.18;;
27491;SDS011;14927;51.210;6.838;2023-04-24T03:59:48;13.40;;;6.20;;
27491;SDS011;14927;51.210;6.838;2023-04-24T04:02:33;12.00;;;6.63;;
27491;SDS011;14927;51.210;6.838;2023-04-24T04:05:17;15.45;;;7.32;;
27491;SDS011;14927;51.210;6.838;2023-04-24T04:08:02;11.38;;;6.75;;
27491;SDS011;14927;51.210;6.838;2023-04-24T04:10:46;10.63;;;6.63;;
27491;SDS011;14927;51.210;6.838;2023-04-24T04:13:31;8.55;;;5.85;;
27491;SDS011;14927;51.210;6.838;2023-04-24T04:16:15;13.23;;;6.43;;
27491;SDS011;14927;51.210;6.838;2023-04-24T04:19:01;11.57;;;6.40;;
27491;SDS011;14927;51.210;6.838;2023-04-24T04:21:46;15.48;;;6.15;;
27491;SDS011;14927;51.210;6.838;2023-04-24T04:24:36;13.77;;;5.93;;
27491;SDS011;14927;51.210;6.838;2023-04-24T04:27:21;7.88;;;5.88;;
27491;SDS011;14927;51.210;6.838;2023-04-24T04:30:06;9.32;;;5.75;;
27491;SDS011;14927;51.210;6.838;2023-04-24T04:32:53;9.60;;;5.88;;
27491;SDS011;14927;51.210;6.838;2023-04-24T04:35:38;10.07;;;5.95;;
27491;SDS011;14927;51.210;6.838;2023-04-24T04:38:23;13.02;;;6.22;;
27491;SDS011;14927;51.210;6.838;2023-04-24T04:41:08;8.68;;;5.40;;
27491;SDS011;14927;51.210;6.838;2023-04-24T04:43:52;7.47;;;6.05;;
